EFPOEFTU

Guest
Details From EFPO - Pori
To EFTU - Turku
Flight Number -
Tags Generated
Created
Modified
Stats Distance 59 nm / 108 km
Max Altitude 0 ft / 0 m
Waypoints 2
Social Downloads 2
Likes 0
Share VATSIM

Download

Looking for another format? Having issues loading an existing format? Contact us
Advertisement - Login to hide

Notes

Generated

Route

EFPO EFTU

ID Type Via Altitude Latitude Longitude Leg Dist Tot Dist Heading (true) Name
O EFPO APT - 0 ft / 0 m 61.46398˚ 21.79848˚ - 0 nm - Pori
O EFTU APT - 0 ft / 0 m 60.51311˚ 22.24015˚ 58 nm 58 nm 167° / 167° -

Altitude Profile

Advertisement - Login to hide

EFPO

Details ICAO EFPO (POR)
Name Pori
Region Finland
Timezone Europe/Helsinki (UTC+2.0)
Stats Elevation 44 ft / 13 m (AMSL)
Location 61.461174° 21.799255°
Runways 2
Magnetic Variation 8.034° E

METAR

EFPO 122220Z AUTO 22004KT 2700 -SN SCT006/// BKN014/// OVC027/// M01/M02 Q0985

Decode

TAF

Not found

Departure Runways

ID Width Length Bearing (true) Bearing (mag) Surface Threshold Offset Overrun Length
12 197 ft / 60 m 7,692 ft / 2,345 m 125.81° 117.78° Asphalt 312 ft / 95 m 0 ft / 0 m
17 98 ft / 30 m 2,623 ft / 799 m 173.89° 165.86° Asphalt 400 ft / 122 m 0 ft / 0 m
30 197 ft / 60 m 7,692 ft / 2,345 m 305.84° 297.81° Asphalt 1,132 ft / 345 m 0 ft / 0 m
35 98 ft / 30 m 2,623 ft / 799 m 353.90° 345.87° Asphalt 400 ft / 122 m 0 ft / 0 m

EFTU

Details ICAO EFTU (TKU)
Name Turku
Region Finland
Timezone Europe/Helsinki (UTC+2.0)
Stats Elevation 161 ft / 49 m (AMSL)
Location 60.514115° 22.262812°
Runways 1
Magnetic Variation 7.973° E

METAR

EFTU 122220Z AUTO 28007KT 9999 FEW007/// OVC028/// M01/M02 Q0986

Decode

TAF

TAF TAF EFTU 122035Z 1221/1321 29007KT 9999 BKN008 BKN023 BECMG 1221/1223 BKN015 TEMPO 1221/1304 5000 -SN TEMPO 1315/1320 6000 -RASN BKN012

Decode

Destination Runways

ID Width Length Bearing (true) Bearing (mag) Surface Threshold Offset Overrun Length
08 197 ft / 60 m 8,175 ft / 2,492 m 84.82° 76.85° Asphalt 0 ft / 0 m 0 ft / 0 m
26 197 ft / 60 m 8,175 ft / 2,492 m 264.86° 256.89° Asphalt 0 ft / 0 m 0 ft / 0 m

Approach Navaids

Runway Type Ident Frequency Range Bearing (true) Bearing (mag) Slope Elevation
26 Localiser TU 109.50 MHz 18 nm / 33 km 264.82° 256.84° - 161 ft / 49 m (AMSL)
26 Glidescope TU 109.50 MHz 10 nm / 19 km 264.84° 256.87° 3.00° 161 ft / 49 m (AMSL)
26 DME TU 109.50 MHz 18 nm / 33 km - - - 200 ft / 61 m (AMSL)

Popular Alternatives